createdAt,value
2024-03-14T16:27:14.210Z,9.00
2024-03-14T16:29:41.517Z,8.70
2024-03-14T16:32:08.763Z,9.10
2024-03-14T16:36:25.678Z,8.00
2024-03-14T16:39:19.620Z,9.40
2024-03-14T16:42:08.032Z,11.70
2024-03-14T16:44:56.483Z,10.90
2024-03-14T16:47:45.262Z,13.30
2024-03-14T16:50:34.997Z,13.90
2024-03-14T16:53:23.031Z,14.40
2024-03-14T16:56:12.396Z,12.30
2024-03-14T16:59:00.020Z,10.30
2024-03-14T17:01:47.986Z,8.60
2024-03-14T17:04:35.793Z,10.40
2024-03-14T17:07:25.463Z,11.00
2024-03-14T17:10:13.317Z,9.20
2024-03-14T17:13:02.958Z,9.50
2024-03-14T17:15:51.672Z,10.50
2024-03-14T17:18:40.040Z,10.50
2024-03-14T17:21:29.717Z,11.60
2024-03-14T17:24:19.470Z,11.20
2024-03-14T17:27:13.254Z,11.40
2024-03-14T17:30:06.971Z,14.40
2024-03-14T17:32:56.586Z,13.70
2024-03-14T17:35:44.900Z,14.40
2024-03-14T17:38:33.967Z,16.10
2024-03-14T17:41:21.998Z,14.90
2024-03-14T17:44:10.048Z,14.10
2024-03-14T17:46:59.983Z,16.40
2024-03-14T17:49:48.075Z,15.20
2024-03-14T17:52:35.808Z,14.90
2024-03-14T17:55:24.902Z,17.60
2024-03-14T17:58:15.374Z,17.20
2024-03-14T18:01:05.636Z,18.00
2024-03-14T18:03:55.516Z,16.20
2024-03-14T18:06:45.807Z,15.40
2024-03-14T18:09:34.955Z,14.80
2024-03-14T18:12:23.594Z,17.00
2024-03-14T18:15:14.171Z,19.40
2024-03-14T18:18:03.935Z,19.50
2024-03-14T18:20:52.719Z,16.10
2024-03-14T18:23:41.440Z,15.90
2024-03-14T18:26:30.302Z,16.80
2024-03-14T18:29:20.604Z,22.50
2024-03-14T18:32:13.677Z,17.40
2024-03-14T18:35:04.224Z,15.10
2024-03-14T18:37:53.243Z,14.30
2024-03-14T18:40:42.391Z,14.00
2024-03-14T18:43:33.052Z,12.80
2024-03-14T18:46:23.252Z,14.80
2024-03-14T18:49:17.464Z,14.80
2024-03-14T18:52:11.235Z,16.60
2024-03-14T18:55:00.274Z,18.70
2024-03-14T18:57:50.492Z,18.70
2024-03-14T19:00:39.039Z,23.20
2024-03-14T19:03:27.620Z,19.70
2024-03-14T19:06:20.391Z,20.10
2024-03-14T19:09:11.981Z,22.00
2024-03-14T19:14:50.098Z,25.20
2024-03-14T19:17:39.483Z,23.90
2024-03-14T19:20:29.548Z,23.40
2024-03-14T19:23:18.584Z,24.00
2024-03-14T19:26:07.792Z,24.40
2024-03-14T19:28:57.574Z,21.80
2024-03-14T19:31:46.545Z,21.60
2024-03-14T19:34:35.836Z,22.90
2024-03-14T19:37:25.821Z,23.20
2024-03-14T19:40:15.721Z,21.10
2024-03-14T19:43:05.220Z,20.90
2024-03-14T19:45:54.406Z,20.10
2024-03-14T19:48:45.965Z,20.00
2024-03-14T19:51:35.422Z,20.10
2024-03-14T19:54:24.267Z,20.10
2024-03-14T19:57:13.576Z,19.20
2024-03-14T20:00:03.271Z,18.20
2024-03-14T20:03:03.064Z,17.80
2024-03-14T20:08:41.643Z,16.40
2024-03-14T20:11:30.461Z,16.70
2024-03-14T20:14:19.848Z,18.30
2024-03-14T20:17:08.313Z,16.80
2024-03-14T20:19:57.472Z,18.00
2024-03-14T20:22:45.273Z,18.20
2024-03-14T20:25:33.592Z,16.40
2024-03-14T20:28:21.550Z,18.00
2024-03-14T20:31:09.888Z,16.60
2024-03-14T20:33:58.693Z,16.00
2024-03-14T20:36:47.660Z,17.00
2024-03-14T20:39:42.867Z,17.60
2024-03-14T20:42:33.574Z,17.90
2024-03-14T20:45:24.116Z,19.30
2024-03-14T20:48:13.442Z,17.30
2024-03-14T20:51:02.817Z,14.90
2024-03-14T20:53:52.495Z,19.40
2024-03-14T20:56:46.892Z,18.50
2024-03-14T20:59:34.952Z,16.60
2024-03-14T21:02:25.958Z,19.40
2024-03-14T21:05:15.531Z,20.40
2024-03-14T21:08:11.638Z,18.80
2024-03-14T21:11:00.927Z,19.30
2024-03-14T21:13:49.295Z,21.80
2024-03-14T21:16:37.339Z,18.40
2024-03-14T21:19:26.079Z,19.90
2024-03-14T21:22:15.049Z,20.70
2024-03-14T21:25:07.801Z,21.80
2024-03-14T21:28:02.920Z,20.80
2024-03-14T21:30:53.170Z,21.20
2024-03-14T21:33:42.395Z,21.40
2024-03-14T21:36:31.640Z,22.60
2024-03-14T21:39:20.210Z,21.50
2024-03-14T21:42:08.606Z,21.30
2024-03-14T21:44:57.374Z,18.30
2024-03-14T21:47:50.629Z,21.10
2024-03-14T21:50:39.707Z,22.20
2024-03-14T21:53:30.606Z,23.20
2024-03-14T21:56:18.534Z,21.30
2024-03-14T21:59:07.837Z,20.90
2024-03-14T22:01:56.718Z,21.30
2024-03-14T22:04:45.844Z,18.90
2024-03-14T22:07:34.832Z,19.60
2024-03-14T22:10:23.458Z,21.10
2024-03-14T22:13:12.462Z,22.70
2024-03-14T22:16:01.138Z,21.30
2024-03-14T22:18:50.182Z,22.40
2024-03-14T22:21:41.437Z,19.90
2024-03-14T22:24:30.520Z,18.90
2024-03-14T22:27:18.580Z,20.50
2024-03-14T22:30:09.379Z,19.50
2024-03-14T22:32:58.166Z,21.70
2024-03-14T22:35:46.993Z,24.40
2024-03-14T22:38:35.710Z,24.30
2024-03-14T22:41:23.754Z,23.20
2024-03-14T22:44:13.712Z,22.90
2024-03-14T22:47:02.400Z,23.50
2024-03-14T22:49:50.835Z,23.00
2024-03-14T22:52:40.109Z,22.90
2024-03-14T22:55:28.660Z,22.20
2024-03-14T22:58:17.506Z,23.20
2024-03-14T23:01:06.511Z,22.60
2024-03-14T23:03:55.335Z,23.60
2024-03-14T23:06:43.573Z,22.00
2024-03-14T23:09:31.769Z,25.20
2024-03-14T23:12:20.401Z,27.70
2024-03-14T23:15:08.733Z,26.30
2024-03-14T23:17:57.398Z,25.90
2024-03-14T23:20:45.907Z,27.60
2024-03-14T23:23:33.843Z,25.90
2024-03-14T23:26:28.819Z,26.90
2024-03-14T23:29:23.240Z,29.10
2024-03-14T23:32:11.537Z,23.80
2024-03-14T23:35:00.452Z,25.80
2024-03-14T23:37:48.974Z,26.90
2024-03-14T23:40:36.731Z,26.00
2024-03-14T23:43:25.259Z,26.00
2024-03-14T23:46:14.848Z,24.60
2024-03-14T23:49:02.939Z,28.10
2024-03-14T23:51:51.005Z,27.40
2024-03-14T23:54:38.799Z,26.80
2024-03-14T23:57:27.430Z,28.90
